sensor_id;sensor_type;location;lat;lon;timestamp;pressure;altitude;pressure_sealevel;temperature;humidity
45467;BME280;31212;49.734;8.490;2023-01-09T00:01:12;98763.44;;;7.24;100.00
45467;BME280;31212;49.734;8.490;2023-01-09T00:03:39;98753.19;;;7.18;100.00
45467;BME280;31212;49.734;8.490;2023-01-09T00:06:06;98753.13;;;7.23;100.00
45467;BME280;31212;49.734;8.490;2023-01-09T00:08:33;98749.78;;;7.15;100.00
45467;BME280;31212;49.734;8.490;2023-01-09T00:10:59;98750.59;;;7.20;100.00
45467;BME280;31212;49.734;8.490;2023-01-09T00:13:26;98748.06;;;7.17;100.00
45467;BME280;31212;49.734;8.490;2023-01-09T00:15:52;98749.72;;;7.22;100.00
45467;BME280;31212;49.734;8.490;2023-01-09T00:18:20;98731.69;;;7.16;100.00
45467;BME280;31212;49.734;8.490;2023-01-09T00:20:47;98737.72;;;7.18;100.00
45467;BME280;31212;49.734;8.490;2023-01-09T00:23:13;98730.00;;;7.12;100.00
45467;BME280;31212;49.734;8.490;2023-01-09T00:25:41;98728.31;;;7.13;100.00
45467;BME280;31212;49.734;8.490;2023-01-09T00:28:07;98724.84;;;7.14;100.00
45467;BME280;31212;49.734;8.490;2023-01-09T00:30:34;98722.25;;;7.14;100.00
45467;BME280;31212;49.734;8.490;2023-01-09T00:33:00;98720.53;;;7.14;100.00
45467;BME280;31212;49.734;8.490;2023-01-09T00:35:28;98715.41;;;7.11;100.00
45467;BME280;31212;49.734;8.490;2023-01-09T00:37:55;98710.19;;;7.16;100.00
45467;BME280;31212;49.734;8.490;2023-01-09T00:40:21;98709.34;;;7.14;100.00
45467;BME280;31212;49.734;8.490;2023-01-09T00:42:50;98705.91;;;7.15;100.00
45467;BME280;31212;49.734;8.490;2023-01-09T00:45:21;98711.91;;;7.15;100.00
45467;BME280;31212;49.734;8.490;2023-01-09T00:47:54;98703.34;;;7.13;100.00
45467;BME280;31212;49.734;8.490;2023-01-09T00:50:26;98699.00;;;7.15;100.00
45467;BME280;31212;49.734;8.490;2023-01-09T00:52:55;98700.72;;;7.16;100.00
45467;BME280;31212;49.734;8.490;2023-01-09T00:55:25;98694.75;;;7.14;100.00
45467;BME280;31212;49.734;8.490;2023-01-09T00:57:52;98698.19;;;7.13;100.00
45467;BME280;31212;49.734;8.490;2023-01-09T01:00:19;98699.00;;;7.17;100.00
45467;BME280;31212;49.734;8.490;2023-01-09T01:02:45;98705.88;;;7.16;100.00
45467;BME280;31212;49.734;8.490;2023-01-09T01:05:12;98705.88;;;7.19;100.00
45467;BME280;31212;49.734;8.490;2023-01-09T01:07:57;98707.53;;;7.22;100.00
45467;BME280;31212;49.734;8.490;2023-01-09T01:10:25;98717.94;;;7.16;100.00
45467;BME280;31212;49.734;8.490;2023-01-09T01:12:52;98712.69;;;7.22;100.00
45467;BME280;31212;49.734;8.490;2023-01-09T01:15:19;98717.88;;;7.23;100.00
45467;BME280;31212;49.734;8.490;2023-01-09T01:17:46;98720.38;;;7.30;100.00
45467;BME280;31212;49.734;8.490;2023-01-09T01:20:15;98723.81;;;7.29;100.00
45467;BME280;31212;49.734;8.490;2023-01-09T01:22:42;98712.59;;;7.33;100.00
45467;BME280;31212;49.734;8.490;2023-01-09T01:25:11;98716.91;;;7.31;100.00
45467;BME280;31212;49.734;8.490;2023-01-09T01:27:39;98718.56;;;7.36;100.00
45467;BME280;31212;49.734;8.490;2023-01-09T01:30:08;98719.44;;;7.37;100.00
45467;BME280;31212;49.734;8.490;2023-01-09T01:32:35;98714.28;;;7.35;100.00
45467;BME280;31212;49.734;8.490;2023-01-09T01:35:02;98716.88;;;7.34;100.00
45467;BME280;31212;49.734;8.490;2023-01-09T01:37:29;98714.28;;;7.37;100.00
45467;BME280;31212;49.734;8.490;2023-01-09T01:39:56;98711.69;;;7.38;100.00
45467;BME280;31212;49.734;8.490;2023-01-09T01:42:24;98713.38;;;7.39;100.00
45467;BME280;31212;49.734;8.490;2023-01-09T01:45:00;98715.91;;;7.44;100.00
45467;BME280;31212;49.734;8.490;2023-01-09T01:47:33;98712.47;;;7.45;100.00
45467;BME280;31212;49.734;8.490;2023-01-09T01:50:04;98721.13;;;7.41;100.00
45467;BME280;31212;49.734;8.490;2023-01-09T01:52:34;98714.19;;;7.45;100.00
45467;BME280;31212;49.734;8.490;2023-01-09T01:55:04;98720.25;;;7.40;100.00
45467;BME280;31212;49.734;8.490;2023-01-09T01:57:34;98739.09;;;7.47;100.00
45467;BME280;31212;49.734;8.490;2023-01-09T02:00:04;98725.31;;;7.50;100.00
45467;BME280;31212;49.734;8.490;2023-01-09T02:02:31;98745.91;;;7.56;100.00
45467;BME280;31212;49.734;8.490;2023-01-09T02:05:02;98747.69;;;7.51;100.00
45467;BME280;31212;49.734;8.490;2023-01-09T02:07:29;98734.81;;;7.48;100.00
45467;BME280;31212;49.734;8.490;2023-01-09T02:09:56;98750.41;;;7.38;100.00
45467;BME280;31212;49.734;8.490;2023-01-09T02:12:25;98777.06;;;7.39;100.00
45467;BME280;31212;49.734;8.490;2023-01-09T02:14:56;98773.63;;;7.40;100.00
45467;BME280;31212;49.734;8.490;2023-01-09T02:20:38;98775.38;;;7.36;100.00
45467;BME280;31212;49.734;8.490;2023-01-09T02:23:33;98767.66;;;7.33;100.00
45467;BME280;31212;49.734;8.490;2023-01-09T02:29:17;98760.97;;;7.17;100.00
45467;BME280;31212;49.734;8.490;2023-01-09T02:31:52;98768.78;;;7.06;100.00
45467;BME280;31212;49.734;8.490;2023-01-09T02:34:25;98768.75;;;7.09;100.00
45467;BME280;31212;49.734;8.490;2023-01-09T02:37:00;98765.28;;;7.13;100.00
45467;BME280;31212;49.734;8.490;2023-01-09T02:39:34;98759.34;;;7.05;100.00
45467;BME280;31212;49.734;8.490;2023-01-09T02:42:08;98766.19;;;7.07;100.00
45467;BME280;31212;49.734;8.490;2023-01-09T02:44:37;98774.78;;;7.08;100.00
45467;BME280;31212;49.734;8.490;2023-01-09T02:47:39;98781.69;;;7.06;100.00
45467;BME280;31212;49.734;8.490;2023-01-09T02:50:09;98779.94;;;7.08;100.00
45467;BME280;31212;49.734;8.490;2023-01-09T02:52:48;98789.31;;;7.18;100.00
45467;BME280;31212;49.734;8.490;2023-01-09T02:55:31;98785.00;;;7.19;100.00
45467;BME280;31212;49.734;8.490;2023-01-09T02:58:07;98791.91;;;7.18;100.00
45467;BME280;31212;49.734;8.490;2023-01-09T03:00:45;98798.78;;;7.19;100.00
45467;BME280;31212;49.734;8.490;2023-01-09T03:03:20;98791.00;;;7.22;100.00
45467;BME280;31212;49.734;8.490;2023-01-09T03:05:53;98793.59;;;7.21;100.00
45467;BME280;31212;49.734;8.490;2023-01-09T03:08:29;98804.72;;;7.24;100.00
45467;BME280;31212;49.734;8.490;2023-01-09T03:11:00;98797.00;;;7.23;100.00
45467;BME280;31212;49.734;8.490;2023-01-09T03:13:31;98803.91;;;7.22;100.00
45467;BME280;31212;49.734;8.490;2023-01-09T03:16:01;98809.94;;;7.21;100.00
45467;BME280;31212;49.734;8.490;2023-01-09T03:18:33;98817.72;;;7.18;100.00
45467;BME280;31212;49.734;8.490;2023-01-09T03:21:04;98810.78;;;7.25;100.00
45467;BME280;31212;49.734;8.490;2023-01-09T03:23:45;98817.69;;;7.21;100.00
45467;BME280;31212;49.734;8.490;2023-01-09T03:26:11;98815.97;;;7.20;100.00
45467;BME280;31212;49.734;8.490;2023-01-09T03:28:38;98813.38;;;7.20;100.00
45467;BME280;31212;49.734;8.490;2023-01-09T03:31:04;98817.72;;;7.17;100.00
45467;BME280;31212;49.734;8.490;2023-01-09T03:33:32;98818.63;;;7.11;100.00
45467;BME280;31212;49.734;8.490;2023-01-09T03:35:59;98823.81;;;7.08;100.00
45467;BME280;31212;49.734;8.490;2023-01-09T03:38:26;98828.13;;;7.07;100.00
45467;BME280;31212;49.734;8.490;2023-01-09T03:40:52;98834.19;;;7.02;100.00
45467;BME280;31212;49.734;8.490;2023-01-09T03:43:19;98834.19;;;7.02;100.00
45467;BME280;31212;49.734;8.490;2023-01-09T03:45:45;98836.00;;;6.90;100.00
45467;BME280;31212;49.734;8.490;2023-01-09T03:48:12;98835.13;;;6.87;100.00
45467;BME280;31212;49.734;8.490;2023-01-09T03:50:40;98840.28;;;6.92;100.00
45467;BME280;31212;49.734;8.490;2023-01-09T03:53:10;98836.00;;;6.90;100.00
45467;BME280;31212;49.734;8.490;2023-01-09T03:55:37;98838.59;;;6.87;100.00
45467;BME280;31212;49.734;8.490;2023-01-09T03:58:03;98844.63;;;6.86;100.00
45467;BME280;31212;49.734;8.490;2023-01-09T04:00:30;98849.78;;;6.85;100.00
45467;BME280;31212;49.734;8.490;2023-01-09T04:02:57;98859.25;;;6.83;100.00
45467;BME280;31212;49.734;8.490;2023-01-09T04:05:23;98876.47;;;6.81;100.00
45467;BME280;31212;49.734;8.490;2023-01-09T04:07:51;98883.38;;;6.80;100.00
45467;BME280;31212;49.734;8.490;2023-01-09T04:10:17;98886.78;;;6.81;100.00
45467;BME280;31212;49.734;8.490;2023-01-09T04:12:44;98901.41;;;6.82;100.00
45467;BME280;31212;49.734;8.490;2023-01-09T04:15:10;98904.78;;;6.87;100.00
45467;BME280;31212;49.734;8.490;2023-01-09T04:17:37;98904.78;;;6.87;100.00
45467;BME280;31212;49.734;8.490;2023-01-09T04:20:04;98911.66;;;6.88;100.00
45467;BME280;31212;49.734;8.490;2023-01-09T04:22:31;98913.38;;;6.90;100.00
45467;BME280;31212;49.734;8.490;2023-01-09T04:24:59;98911.66;;;6.88;100.00
45467;BME280;31212;49.734;8.490;2023-01-09T04:27:26;98914.25;;;6.91;100.00
45467;BME280;31212;49.734;8.490;2023-01-09T04:29:52;98919.41;;;6.89;100.00
45467;BME280;31212;49.734;8.490;2023-01-09T04:32:19;98928.84;;;6.90;100.00
45467;BME280;31212;49.734;8.490;2023-01-09T04:34:45;98932.34;;;6.83;100.00
45467;BME280;31212;49.734;8.490;2023-01-09T04:37:12;98933.16;;;6.92;100.00
45467;BME280;31212;49.734;8.490;2023-01-09T04:39:39;98946.13;;;6.79;100.00
45467;BME280;31212;49.734;8.490;2023-01-09T04:42:10;98956.38;;;6.92;100.00
45467;BME280;31212;49.734;8.490;2023-01-09T04:44:37;98959.00;;;6.84;100.00
45467;BME280;31212;49.734;8.490;2023-01-09T04:47:04;98974.47;;;6.82;100.00
45467;BME280;31212;49.734;8.490;2023-01-09T04:49:31;98976.25;;;6.68;100.00
45467;BME280;31212;49.734;8.490;2023-01-09T04:51:57;98981.44;;;6.63;100.00
45467;BME280;31212;49.734;8.490;2023-01-09T04:54:24;98984.03;;;6.62;100.00
45467;BME280;31212;49.734;8.490;2023-01-09T04:56:50;98980.63;;;6.53;100.00
45467;BME280;31212;49.734;8.490;2023-01-09T04:59:18;98976.34;;;6.49;100.00
45467;BME280;31212;49.734;8.490;2023-01-09T05:01:45;98972.91;;;6.46;100.00
45467;BME280;31212;49.734;8.490;2023-01-09T05:04:11;98981.50;;;6.43;100.00
45467;BME280;31212;49.734;8.490;2023-01-09T05:06:38;98979.81;;;6.45;100.00
45467;BME280;31212;49.734;8.490;2023-01-09T05:09:04;98980.63;;;6.47;100.00
45467;BME280;31212;49.734;8.490;2023-01-09T05:11:31;98977.19;;;6.44;100.00
45467;BME280;31212;49.734;8.490;2023-01-09T05:13:58;98966.97;;;6.27;100.00
45467;BME280;31212;49.734;8.490;2023-01-09T05:16:25;98973.84;;;6.20;100.00
45467;BME280;31212;49.734;8.490;2023-01-09T05:18:52;98973.88;;;6.17;100.00
45467;BME280;31212;49.734;8.490;2023-01-09T05:21:21;98976.44;;;6.17;100.00
45467;BME280;31212;49.734;8.490;2023-01-09T05:23:48;98973.84;;;6.20;100.00
45467;BME280;31212;49.734;8.490;2023-01-09T05:26:15;98979.00;;;6.20;99.04
45467;BME280;31212;49.734;8.490;2023-01-09T05:28:41;98973.84;;;6.15;98.41
45467;BME280;31212;49.734;8.490;2023-01-09T05:31:08;98969.56;;;6.17;97.79
45467;BME280;31212;49.734;8.490;2023-01-09T05:33:36;98966.97;;;6.11;97.16
45467;BME280;31212;49.734;8.490;2023-01-09T05:36:03;98960.97;;;6.11;96.18
45467;BME280;31212;49.734;8.490;2023-01-09T05:38:29;98962.69;;;6.09;95.71
45467;BME280;31212;49.734;8.490;2023-01-09T05:40:56;98963.56;;;6.06;95.39
45467;BME280;31212;49.734;8.490;2023-01-09T05:43:23;98956.69;;;6.02;95.17
45467;BME280;31212;49.734;8.490;2023-01-09T05:45:49;98950.69;;;6.06;94.27
45467;BME280;31212;49.734;8.490;2023-01-09T05:48:16;98941.25;;;6.00;94.30
45467;BME280;31212;49.734;8.490;2023-01-09T05:50:44;98941.22;;;5.96;93.60
45467;BME280;31212;49.734;8.490;2023-01-09T05:53:11;98947.25;;;5.85;93.51
45467;BME280;31212;49.734;8.490;2023-01-09T05:55:37;98947.25;;;5.88;92.90
45467;BME280;31212;49.734;8.490;2023-01-09T05:58:04;98942.13;;;5.78;92.21
45467;BME280;31212;49.734;8.490;2023-01-09T06:00:30;98943.00;;;5.75;92.91
45467;BME280;31212;49.734;8.490;2023-01-09T06:02:58;98960.13;;;5.64;92.88
45467;BME280;31212;49.734;8.490;2023-01-09T06:05:25;98955.84;;;5.63;92.73
45467;BME280;31212;49.734;8.490;2023-01-09T06:07:53;98961.00;;;5.72;91.80
45467;BME280;31212;49.734;8.490;2023-01-09T06:10:19;98947.28;;;5.78;91.00
45467;BME280;31212;49.734;8.490;2023-01-09T06:12:47;98930.94;;;5.83;90.41
45467;BME280;31212;49.734;8.490;2023-01-09T06:15:14;98915.50;;;5.93;89.48
45467;BME280;31212;49.734;8.490;2023-01-09T06:17:41;98908.63;;;5.85;89.52
45467;BME280;31212;49.734;8.490;2023-01-09T06:20:09;98904.34;;;5.84;89.31
45467;BME280;31212;49.734;8.490;2023-01-09T06:22:36;98904.31;;;5.94;88.64
45467;BME280;31212;49.734;8.490;2023-01-09T06:25:05;98892.31;;;5.80;88.63
45467;BME280;31212;49.734;8.490;2023-01-09T06:27:31;98893.19;;;5.82;88.98
45467;BME280;31212;49.734;8.490;2023-01-09T06:29:58;98892.28;;;5.89;88.43
45467;BME280;31212;49.734;8.490;2023-01-09T06:32:25;98884.56;;;5.89;88.25
45467;BME280;31212;49.734;8.490;2023-01-09T06:34:52;98900.03;;;5.88;88.24
45467;BME280;31212;49.734;8.490;2023-01-09T06:37:18;98900.00;;;5.97;88.30
45467;BME280;31212;49.734;8.490;2023-01-09T06:39:45;98873.38;;;5.94;87.31
45467;BME280;31212;49.734;8.490;2023-01-09T06:42:13;98878.56;;;6.01;87.33
45467;BME280;31212;49.734;8.490;2023-01-09T06:44:40;98862.25;;;6.04;86.83
45467;BME280;31212;49.734;8.490;2023-01-09T06:47:07;98861.38;;;6.02;86.83
45467;BME280;31212;49.734;8.490;2023-01-09T06:49:33;98850.22;;;6.08;86.78
45467;BME280;31212;49.734;8.490;2023-01-09T06:52:00;98833.88;;;6.12;86.02
45467;BME280;31212;49.734;8.490;2023-01-09T06:54:29;98851.03;;;6.10;85.67
45467;BME280;31212;49.734;8.490;2023-01-09T06:56:56;98854.47;;;6.15;85.74
45467;BME280;31212;49.734;8.490;2023-01-09T06:59:24;98842.47;;;6.09;85.97
45467;BME280;31212;49.734;8.490;2023-01-09T07:01:51;98851.88;;;6.16;86.05
45467;BME280;31212;49.734;8.490;2023-01-09T07:04:17;98854.47;;;6.16;86.11
45467;BME280;31212;49.734;8.490;2023-01-09T07:06:46;98857.88;;;6.21;85.79
45467;BME280;31212;49.734;8.490;2023-01-09T07:09:13;98850.16;;;6.15;85.42
45467;BME280;31212;49.734;8.490;2023-01-09T07:11:40;98871.63;;;6.20;85.54
45467;BME280;31212;49.734;8.490;2023-01-09T07:14:06;98874.19;;;6.23;86.02
45467;BME280;31212;49.734;8.490;2023-01-09T07:16:34;98868.22;;;6.14;86.39
45467;BME280;31212;49.734;8.490;2023-01-09T07:19:01;98866.50;;;6.17;86.16
45467;BME280;31212;49.734;8.490;2023-01-09T07:21:27;98868.19;;;6.15;85.84
45467;BME280;31212;49.734;8.490;2023-01-09T07:23:54;98845.00;;;6.21;85.29
45467;BME280;31212;49.734;8.490;2023-01-09T07:26:21;98858.75;;;6.19;85.85
45467;BME280;31212;49.734;8.490;2023-01-09T07:28:47;98870.81;;;6.11;85.71
45467;BME280;31212;49.734;8.490;2023-01-09T07:31:14;98876.84;;;6.03;86.44
45467;BME280;31212;49.734;8.490;2023-01-09T07:33:42;98884.53;;;6.10;85.60
45467;BME280;31212;49.734;8.490;2023-01-09T07:36:09;98895.66;;;6.19;85.97
45467;BME280;31212;49.734;8.490;2023-01-09T07:38:35;98898.19;;;6.30;86.18
45467;BME280;31212;49.734;8.490;2023-01-09T07:41:02;98893.03;;;6.38;85.82
45467;BME280;31212;49.734;8.490;2023-01-09T07:43:28;98876.72;;;6.37;85.21
45467;BME280;31212;49.734;8.490;2023-01-09T07:45:55;98888.72;;;6.42;85.45
45467;BME280;31212;49.734;8.490;2023-01-09T07:48:21;98899.06;;;6.38;85.99
45467;BME280;31212;49.734;8.490;2023-01-09T07:50:49;98898.16;;;6.46;85.66
45467;BME280;31212;49.734;8.490;2023-01-09T07:53:16;98892.16;;;6.45;85.02
45467;BME280;31212;49.734;8.490;2023-01-09T07:55:42;98900.72;;;6.46;85.67
45467;BME280;31212;49.734;8.490;2023-01-09T07:58:09;98897.25;;;6.53;85.06
45467;BME280;31212;49.734;8.490;2023-01-09T08:00:36;98893.81;;;6.52;85.68
45467;BME280;31212;49.734;8.490;2023-01-09T08:03:03;98899.00;;;6.51;85.18
45467;BME280;31212;49.734;8.490;2023-01-09T08:05:29;98904.09;;;6.60;85.60
45467;BME280;31212;49.734;8.490;2023-01-09T08:07:57;98904.91;;;6.65;84.98
45467;BME280;31212;49.734;8.490;2023-01-09T08:10:24;98929.00;;;6.64;85.69
45467;BME280;31212;49.734;8.490;2023-01-09T08:12:50;98959.13;;;6.54;86.63
45467;BME280;31212;49.734;8.490;2023-01-09T08:15:17;98971.16;;;6.52;86.22
45467;BME280;31212;49.734;8.490;2023-01-09T08:17:44;98991.81;;;6.49;86.61
45467;BME280;31212;49.734;8.490;2023-01-09T08:20:12;98990.06;;;6.54;86.49
45467;BME280;31212;49.734;8.490;2023-01-09T08:22:40;98996.94;;;6.60;87.06
45467;BME280;31212;49.734;8.490;2023-01-09T08:25:09;99001.25;;;6.55;87.32
45467;BME280;31212;49.734;8.490;2023-01-09T08:27:36;99007.28;;;6.49;86.89
45467;BME280;31212;49.734;8.490;2023-01-09T08:30:03;99015.91;;;6.45;87.36
45467;BME280;31212;49.734;8.490;2023-01-09T08:32:29;99040.81;;;6.43;87.76
45467;BME280;31212;49.734;8.490;2023-01-09T08:34:56;99055.44;;;6.41;88.24
45467;BME280;31212;49.734;8.490;2023-01-09T08:37:23;99059.72;;;6.45;88.80
45467;BME280;31212;49.734;8.490;2023-01-09T08:39:49;99064.88;;;6.45;88.89
45467;BME280;31212;49.734;8.490;2023-01-09T08:42:19;99084.63;;;6.43;89.38
45467;BME280;31212;49.734;8.490;2023-01-09T08:45:05;99089.81;;;6.38;90.16
45467;BME280;31212;49.734;8.490;2023-01-09T08:47:49;99106.13;;;6.37;90.67
45467;BME280;31212;49.734;8.490;2023-01-09T08:50:16;99123.31;;;6.38;90.77
45467;BME280;31212;49.734;8.490;2023-01-09T08:52:42;99137.91;;;6.32;91.02
45467;BME280;31212;49.734;8.490;2023-01-09T08:55:09;99143.91;;;6.35;91.85
45467;BME280;31212;49.734;8.490;2023-01-09T08:57:39;99153.38;;;6.35;92.47
45467;BME280;31212;49.734;8.490;2023-01-09T09:00:13;99158.53;;;6.35;93.27
45467;BME280;31212;49.734;8.490;2023-01-09T09:02:40;99167.09;;;6.35;93.27
45467;BME280;31212;49.734;8.490;2023-01-09T09:05:07;99173.13;;;6.40;94.33
45467;BME280;31212;49.734;8.490;2023-01-09T09:07:34;99177.44;;;6.29;94.56
45467;BME280;31212;49.734;8.490;2023-01-09T09:10:01;99177.41;;;6.37;94.29
45467;BME280;31212;49.734;8.490;2023-01-09T09:12:27;99187.75;;;6.29;94.65
45467;BME280;31212;49.734;8.490;2023-01-09T09:14:55;99180.88;;;6.39;95.14
45467;BME280;31212;49.734;8.490;2023-01-09T09:17:48;99186.03;;;6.39;94.58
45467;BME280;31212;49.734;8.490;2023-01-09T09:20:15;99184.31;;;6.49;94.65
45467;BME280;31212;49.734;8.490;2023-01-09T09:22:44;99187.75;;;6.63;94.30
45467;BME280;31212;49.734;8.490;2023-01-09T09:25:11;99187.72;;;6.77;94.17
45467;BME280;31212;49.734;8.490;2023-01-09T09:27:37;99177.41;;;6.77;94.20
45467;BME280;31212;49.734;8.490;2023-01-09T09:30:07;99176.56;;;6.78;93.91
45467;BME280;31212;49.734;8.490;2023-01-09T09:32:34;99152.47;;;6.81;92.50
45467;BME280;31212;49.734;8.490;2023-01-09T09:35:01;99153.28;;;6.94;92.22
45467;BME280;31212;49.734;8.490;2023-01-09T09:37:28;99148.16;;;6.95;92.42
45467;BME280;31212;49.734;8.490;2023-01-09T09:39:54;99143.84;;;6.86;91.56
45467;BME280;31212;49.734;8.490;2023-01-09T09:42:34;99141.22;;;7.00;92.04
45467;BME280;31212;49.734;8.490;2023-01-09T09:45:33;99128.38;;;6.94;91.11
45467;BME280;31212;49.734;8.490;2023-01-09T09:48:13;99113.72;;;6.95;90.62
45467;BME280;31212;49.734;8.490;2023-01-09T09:53:47;99107.69;;;7.05;90.12
45467;BME280;31212;49.734;8.490;2023-01-09T09:56:20;99104.25;;;7.07;90.10
45467;BME280;31212;49.734;8.490;2023-01-09T09:58:50;99099.09;;;7.06;89.17
45467;BME280;31212;49.734;8.490;2023-01-09T10:01:21;99093.91;;;7.07;89.05
45467;BME280;31212;49.734;8.490;2023-01-09T10:03:51;99095.59;;;7.16;89.31
45467;BME280;31212;49.734;8.490;2023-01-09T10:06:25;99102.47;;;7.17;89.38
45467;BME280;31212;49.734;8.490;2023-01-09T10:08:59;99092.13;;;7.22;89.21
45467;BME280;31212;49.734;8.490;2023-01-09T10:11:32;99082.69;;;7.15;88.66
45467;BME280;31212;49.734;8.490;2023-01-09T10:14:00;99062.88;;;7.21;88.03
45467;BME280;31212;49.734;8.490;2023-01-09T10:16:38;99050.84;;;7.20;87.49
45467;BME280;31212;49.734;8.490;2023-01-09T10:19:15;99049.13;;;7.19;87.26
45467;BME280;31212;49.734;8.490;2023-01-09T10:21:52;99043.06;;;7.28;86.82
45467;BME280;31212;49.734;8.490;2023-01-09T10:24:36;99026.72;;;7.24;85.94
45467;BME280;31212;49.734;8.490;2023-01-09T10:27:16;99028.41;;;7.29;86.52
45467;BME280;31212;49.734;8.490;2023-01-09T10:29:50;99043.91;;;7.32;86.51
45467;BME280;31212;49.734;8.490;2023-01-09T10:32:32;99047.38;;;7.26;86.71
45467;BME280;31212;49.734;8.490;2023-01-09T10:35:17;99037.91;;;7.22;86.48
45467;BME280;31212;49.734;8.490;2023-01-09T10:37:47;99020.66;;;7.29;86.32
45467;BME280;31212;49.734;8.490;2023-01-09T10:40:20;99027.53;;;7.31;86.38
45467;BME280;31212;49.734;8.490;2023-01-09T10:42:52;99014.59;;;7.39;86.19
45467;BME280;31212;49.734;8.490;2023-01-09T10:45:24;98993.13;;;7.31;85.27
45467;BME280;31212;49.734;8.490;2023-01-09T10:47:56;98982.88;;;7.21;85.59
45467;BME280;31212;49.734;8.490;2023-01-09T10:50:30;98969.13;;;7.19;84.79
45467;BME280;31212;49.734;8.490;2023-01-09T10:52:59;98970.81;;;7.22;85.28
45467;BME280;31212;49.734;8.490;2023-01-09T10:55:35;98969.13;;;7.15;85.09
45467;BME280;31212;49.734;8.490;2023-01-09T10:58:10;98968.25;;;7.17;85.01
45467;BME280;31212;49.734;8.490;2023-01-09T11:00:39;98943.31;;;7.16;84.27
45467;BME280;31212;49.734;8.490;2023-01-09T11:03:10;98910.63;;;7.17;83.87
45467;BME280;31212;49.734;8.490;2023-01-09T11:05:37;98917.44;;;7.26;83.94
45467;BME280;31212;49.734;8.490;2023-01-09T11:08:11;98907.94;;;7.31;83.64
45467;BME280;31212;49.734;8.490;2023-01-09T11:10:45;98888.19;;;7.27;83.27
45467;BME280;31212;49.734;8.490;2023-01-09T11:13:14;98895.88;;;7.31;83.32
45467;BME280;31212;49.734;8.490;2023-01-09T11:15:43;98889.00;;;7.33;82.15
45467;BME280;31212;49.734;8.490;2023-01-09T11:18:22;98875.13;;;7.42;82.69
45467;BME280;31212;49.734;8.490;2023-01-09T11:20:50;98895.66;;;7.59;82.72
45467;BME280;31212;49.734;8.490;2023-01-09T11:23:30;98850.97;;;7.52;81.86
45467;BME280;31212;49.734;8.490;2023-01-09T11:25:58;98832.84;;;7.58;81.13
45467;BME280;31212;49.734;8.490;2023-01-09T11:28:26;98818.22;;;7.53;80.92
45467;BME280;31212;49.734;8.490;2023-01-09T11:30:55;98803.72;;;7.43;80.57
45467;BME280;31212;49.734;8.490;2023-01-09T11:33:27;98809.72;;;7.43;80.44
45467;BME280;31212;49.734;8.490;2023-01-09T11:36:01;98806.34;;;7.38;80.66
45467;BME280;31212;49.734;8.490;2023-01-09T11:38:29;98800.38;;;7.31;80.54
45467;BME280;31212;49.734;8.490;2023-01-09T11:40:59;98814.13;;;7.35;80.55
45467;BME280;31212;49.734;8.490;2023-01-09T11:43:30;98821.84;;;7.35;80.87
45467;BME280;31212;49.734;8.490;2023-01-09T11:46:00;98822.66;;;7.41;80.63
45467;BME280;31212;49.734;8.490;2023-01-09T11:48:33;98820.00;;;7.46;80.45
45467;BME280;31212;49.734;8.490;2023-01-09T11:51:03;98816.53;;;7.53;80.48
45467;BME280;31212;49.734;8.490;2023-01-09T11:53:44;98802.53;;;7.73;79.99
45467;BME280;31212;49.734;8.490;2023-01-09T11:56:15;98784.44;;;7.73;79.20
45467;BME280;31212;49.734;8.490;2023-01-09T11:58:42;98788.66;;;7.79;79.42
45467;BME280;31212;49.734;8.490;2023-01-09T12:01:21;98759.47;;;7.75;79.13
45467;BME280;31212;49.734;8.490;2023-01-09T12:04:09;98770.72;;;7.69;79.03
45467;BME280;31212;49.734;8.490;2023-01-09T12:06:42;98787.91;;;7.73;79.67
45467;BME280;31212;49.734;8.490;2023-01-09T12:09:19;98824.06;;;7.70;80.00
45467;BME280;31212;49.734;8.490;2023-01-09T12:11:53;98826.84;;;7.53;79.94
45467;BME280;31212;49.734;8.490;2023-01-09T12:14:36;98862.16;;;7.50;81.07
45467;BME280;31212;49.734;8.490;2023-01-09T12:17:22;98893.19;;;7.44;81.55
45467;BME280;31212;49.734;8.490;2023-01-09T12:20:10;98937.16;;;7.37;82.26
45467;BME280;31212;49.734;8.490;2023-01-09T12:22:49;98979.44;;;7.21;83.22
45467;BME280;31212;49.734;8.490;2023-01-09T12:25:28;99007.91;;;7.04;83.96
45467;BME280;31212;49.734;8.490;2023-01-09T12:28:09;99024.25;;;7.01;85.03
45467;BME280;31212;49.734;8.490;2023-01-09T12:30:44;99044.06;;;6.96;85.03
45467;BME280;31212;49.734;8.490;2023-01-09T12:33:26;99046.63;;;7.01;85.24
45467;BME280;31212;49.734;8.490;2023-01-09T12:36:07;99036.25;;;7.12;85.05
45467;BME280;31212;49.734;8.490;2023-01-09T12:38:40;99016.44;;;7.14;84.41
45467;BME280;31212;49.734;8.490;2023-01-09T12:41:34;99028.53;;;7.12;84.45
45467;BME280;31212;49.734;8.490;2023-01-09T12:44:49;99067.25;;;7.04;85.89
45467;BME280;31212;49.734;8.490;2023-01-09T12:47:31;99084.47;;;7.03;86.53
45467;BME280;31212;49.734;8.490;2023-01-09T12:50:13;99117.19;;;6.92;87.71
45467;BME280;31212;49.734;8.490;2023-01-09T12:52:52;99153.28;;;6.92;87.99
45467;BME280;31212;49.734;8.490;2023-01-09T12:55:23;99166.19;;;6.92;89.16
45467;BME280;31212;49.734;8.490;2023-01-09T12:57:53;99189.44;;;6.84;90.59
45467;BME280;31212;49.734;8.490;2023-01-09T13:00:22;99190.28;;;6.79;90.71
45467;BME280;31212;49.734;8.490;2023-01-09T13:02:55;99206.63;;;6.74;91.11
45467;BME280;31212;49.734;8.490;2023-01-09T13:05:29;99207.53;;;6.73;91.09
45467;BME280;31212;49.734;8.490;2023-01-09T13:08:00;99204.91;;;6.72;91.85
45467;BME280;31212;49.734;8.490;2023-01-09T13:10:29;99204.94;;;6.75;91.22
45467;BME280;31212;49.734;8.490;2023-01-09T13:12:59;99197.19;;;6.84;91.91
45467;BME280;31212;49.734;8.490;2023-01-09T13:15:34;99192.03;;;6.86;91.17
45467;BME280;31212;49.734;8.490;2023-01-09T13:18:06;99190.31;;;6.83;91.77
45467;BME280;31212;49.734;8.490;2023-01-09T13:20:41;99182.56;;;6.86;91.20
45467;BME280;31212;49.734;8.490;2023-01-09T13:23:16;99162.75;;;6.93;89.72
45467;BME280;31212;49.734;8.490;2023-01-09T13:25:46;99143.84;;;6.94;89.39
45467;BME280;31212;49.734;8.490;2023-01-09T13:28:17;99121.50;;;6.92;88.39
45467;BME280;31212;49.734;8.490;2023-01-09T13:31:01;99112.84;;;6.99;88.15
45467;BME280;31212;49.734;8.490;2023-01-09T13:33:34;99110.28;;;7.05;87.89